TimeEDT,TemperatureF,Dew PointF,Humidity,Sea Level PressureIn,VisibilityMPH,Wind Direction,Wind SpeedMPH,Gust SpeedMPH,PrecipitationIn,Events,Conditions,WindDirDegrees,DateUTC
12:55 AM,55.4,44.8,67,29.70,10.0,West,11.5,18.4,N/A,,Scattered Clouds,280,2012-10-29 04:55:00
1:55 AM,55.0,44.1,67,29.69,10.0,West,10.4,-,N/A,,Mostly Cloudy,280,2012-10-29 05:55:00
2:55 AM,54.7,42.4,63,29.69,10.0,West,13.8,20.7,N/A,,Mostly Cloudy,280,2012-10-29 06:55:00
3:55 AM,52.9,41.0,64,29.68,10.0,West,11.5,17.3,N/A,,Clear,280,2012-10-29 07:55:00
4:55 AM,50.4,40.6,69,29.69,10.0,West,8.1,-,N/A,,Clear,280,2012-10-29 08:55:00
5:55 AM,49.1,39.9,71,29.70,10.0,WNW,11.5,-,N/A,,Clear,290,2012-10-29 09:55:00
6:55 AM,48.4,39.0,70,29.72,10.0,WNW,8.1,-,N/A,,Mostly Cloudy,290,2012-10-29 10:55:00
7:55 AM,48.0,38.5,70,29.73,10.0,WNW,5.8,-,N/A,,Scattered Clouds,290,2012-10-29 11:55:00
8:55 AM,49.6,38.5,65,29.74,10.0,WNW,11.5,17.3,N/A,,Clear,300,2012-10-29 12:55:00
9:55 AM,52.5,38.1,58,29.75,10.0,WNW,10.4,19.6,N/A,,Clear,300,2012-10-29 13:55:00
10:55 AM,55.6,37.9,52,29.73,10.0,WNW,13.8,23.0,N/A,,Clear,300,2012-10-29 14:55:00
11:55 AM,59.4,38.1,45,29.71,10.0,West,12.7,18.4,N/A,,Clear,280,2012-10-29 15:55:00
12:55 PM,61.9,37.6,41,29.68,10.0,WNW,10.4,19.6,N/A,,Clear,300,2012-10-29 16:55:00
1:55 PM,63.1,36.3,37,29.65,10.0,WNW,15.0,24.2,N/A,,Clear,290,2012-10-29 17:55:00
2:55 PM,64.0,35.1,34,29.62,10.0,WNW,17.3,23.0,N/A,,Clear,300,2012-10-29 18:55:00
3:55 PM,64.9,35.6,34,29.60,10.0,West,17.3,26.5,N/A,,Clear,270,2012-10-29 19:55:00
4:55 PM,63.7,34.9,34,29.60,10.0,West,17.3,26.5,N/A,,Clear,270,2012-10-29 20:55:00
5:55 PM,61.7,34.9,37,29.60,10.0,West,10.4,23.0,N/A,,Clear,280,2012-10-29 21:55:00
6:55 PM,58.1,34.9,42,29.61,10.0,West,12.7,19.6,N/A,,Clear,280,2012-10-29 22:55:00
7:55 PM,56.7,34.0,42,29.64,10.0,WNW,12.7,24.2,N/A,,Clear,290,2012-10-29 23:55:00
8:55 PM,55.4,31.8,41,29.66,10.0,WNW,8.1,18.4,N/A,,Clear,300,2012-10-30 00:55:00
9:55 PM,53.6,32.2,44,29.68,10.0,WNW,13.8,24.2,N/A,,Clear,300,2012-10-30 01:55:00
10:55 PM,52.2,32.2,47,29.69,10.0,WNW,8.1,21.9,N/A,,Clear,290,2012-10-30 02:55:00
11:55 PM,48.6,33.3,56,29.69,10.0,West,8.1,-,N/A,,Clear,270,2012-10-30 03:55:00